Time;durP1;ratioP1;P1;durP2;ratioP2;P2;SDS_P1;SDS_P2;PMS_P1;PMS_P2;Temp;Humidity;BMP_temperature;BMP_pressure;BME280_temperature;BME280_humidity;BME280_pressure;Samples;Min_cycle;Max_cycle;Signal;HPM_P1;HPM_P2
2022/09/20 00:00:48;;;;;;;2.88;1.20;;;;;;;25.24;44.07;96636.31;5013786;28;20100;-34
2022/09/20 00:03:15;;;;;;;1.90;1.17;;;;;;;25.14;43.96;96649.03;5013848;28;20033;-35
2022/09/20 00:05:43;;;;;;;2.47;1.27;;;;;;;25.05;44.38;96646.59;5013637;28;20021;-34
2022/09/20 00:08:14;;;;;;;3.42;1.20;;;;;;;25.13;44.01;96650.31;5013971;28;20125;-34
2022/09/20 00:10:39;;;;;;;2.67;1.20;;;;;;;25.14;43.82;96651.06;5013775;28;20450;-34
2022/09/20 00:13:07;;;;;;;3.45;1.63;;;;;;;25.14;44.04;96654.59;5013776;28;20109;-34
2022/09/20 00:15:34;;;;;;;2.78;1.35;;;;;;;25.11;43.85;96643.75;5013345;28;20068;-34
2022/09/20 00:17:59;;;;;;;2.20;1.10;;;;;;;25.11;43.65;96647.28;5013828;28;20431;-34
2022/09/20 00:20:25;;;;;;;3.10;1.60;;;;;;;25.11;43.83;96640.97;5013562;28;20152;-34
2022/09/20 00:22:51;;;;;;;3.40;1.20;;;;;;;25.07;43.78;96635.75;5013302;28;20474;-34
2022/09/20 00:25:17;;;;;;;3.40;1.27;;;;;;;25.11;43.61;96633.41;5013492;28;20022;-34
2022/09/20 00:27:44;;;;;;;2.63;1.20;;;;;;;25.05;43.81;96638.28;5013299;28;20395;-34
2022/09/20 00:30:11;;;;;;;1.75;1.00;;;;;;;25.08;43.83;96630.94;5013472;28;20017;-34
2022/09/20 00:32:36;;;;;;;2.85;1.00;;;;;;;25.01;43.89;96635.03;5013366;28;20377;-34
2022/09/20 00:35:09;;;;;;;1.95;1.33;;;;;;;25.06;43.69;96639.78;5013286;28;20097;-34
2022/09/20 00:37:41;;;;;;;;;;;;;;;25.02;43.66;96633.75;5013556;28;20180;-34
2022/09/20 00:40:11;;;;;;;2.83;1.13;;;;;;;25.08;43.71;96636.50;5013237;28;19996;-34
2022/09/20 00:42:37;;;;;;;1.50;0.95;;;;;;;25.06;43.57;96631.44;5013394;28;20022;-34
2022/09/20 00:45:18;;;;;;;1.77;1.15;;;;;;;25.06;43.72;96634.22;5013255;28;20497;-34
2022/09/20 00:47:48;;;;;;;2.95;1.00;;;;;;;24.90;43.85;96637.84;5013227;28;20117;-34
2022/09/20 00:50:32;;;;;;;3.15;1.10;;;;;;;25.04;43.59;96631.97;5013026;28;20029;-34
2022/09/20 00:53:05;;;;;;;2.10;1.83;;;;;;;25.08;43.49;96620.59;5013610;28;20037;-34
2022/09/20 00:55:32;;;;;;;3.22;1.20;;;;;;;24.96;44.02;96630.28;5013430;28;20033;-34
2022/09/20 00:57:59;;;;;;;2.42;1.25;;;;;;;24.92;44.09;96624.22;5012735;28;20025;-34
2022/09/20 01:00:25;;;;;;;2.35;1.25;;;;;;;24.98;43.91;96616.63;5015142;28;20128;-34
2022/09/20 01:02:57;;;;;;;1.60;1.08;;;;;;;25.00;43.82;96614.84;5014800;28;20076;-34
2022/09/20 01:08:49;;;;;;;5.25;1.70;;;;;;;24.90;44.05;96607.34;5012630;28;20040;-34
2022/09/20 01:11:15;;;;;;;2.53;1.00;;;;;;;24.96;43.95;96602.53;5016669;28;20018;-34
2022/09/20 01:13:40;;;;;;;1.45;0.93;;;;;;;24.91;44.01;96617.19;5017453;28;20382;-34
2022/09/20 01:16:06;;;;;;;1.77;1.02;;;;;;;24.92;44.11;96613.13;5016092;28;20026;-34
2022/09/20 01:18:35;;;;;;;2.25;1.08;;;;;;;24.88;44.03;96612.66;5017553;28;20030;-34
2022/09/20 01:21:03;;;;;;;2.22;1.20;;;;;;;24.96;43.93;96622.72;5017234;28;20036;-34
2022/09/20 01:23:37;;;;;;;2.20;1.10;;;;;;;24.96;43.74;96610.88;5017578;28;20021;-35
2022/09/20 01:26:32;;;;;;;4.35;1.02;;;;;;;25.00;43.77;96609.28;5017192;28;20022;-34
2022/09/20 01:29:28;;;;;;;3.38;1.17;;;;;;;24.96;43.81;96611.63;5017244;28;20018;-34
2022/09/20 01:31:59;;;;;;;2.40;1.13;;;;;;;24.94;43.87;96616.94;5016930;28;20052;-34
2022/09/20 01:34:35;;;;;;;2.28;1.02;;;;;;;24.92;43.80;96613.13;5017072;28;20029;-34
2022/09/20 01:37:10;;;;;;;2.92;1.20;;;;;;;24.89;43.96;96614.16;5016959;28;20060;-34
2022/09/20 01:40:13;;;;;;;2.13;0.93;;;;;;;24.93;43.71;96603.56;5017050;28;20030;-34
2022/09/20 01:46:12;;;;;;;2.78;1.30;;;;;;;24.86;43.82;96610.41;5016498;28;20088;-34
2022/09/20 01:48:39;;;;;;;3.45;1.30;;;;;;;24.95;43.63;96610.13;5016862;28;20049;-35
2022/09/20 01:51:04;;;;;;;2.38;0.95;;;;;;;24.94;43.92;96607.84;5016914;28;20033;-34
2022/09/20 01:53:48;;;;;;;1.65;1.02;;;;;;;24.95;43.75;96599.00;5016828;28;20034;-34
2022/09/20 01:56:22;;;;;;;1.92;1.10;;;;;;;24.93;43.83;96595.25;5016628;28;20030;-34
2022/09/20 01:59:12;;;;;;;2.10;1.10;;;;;;;24.94;43.80;96610.63;5016736;28;20097;-34
2022/09/20 02:01:52;;;;;;;2.67;1.30;;;;;;;24.89;43.74;96597.50;5016680;28;20072;-34
2022/09/20 02:04:44;;;;;;;2.00;1.20;;;;;;;24.82;43.94;96589.78;5016597;28;20439;-34
2022/09/20 02:07:51;;;;;;;2.17;1.00;;;;;;;24.87;43.84;96594.50;5016599;28;20084;-34
2022/09/20 02:10:54;;;;;;;2.08;1.00;;;;;;;24.82;44.17;96601.63;5016425;28;20022;-35
2022/09/20 02:13:29;;;;;;;1.92;1.08;;;;;;;24.90;43.63;96594.22;5016466;28;20036;-34
2022/09/20 02:16:29;;;;;;;2.22;0.90;;;;;;;24.87;43.84;96602.81;5016110;28;20382;-34
2022/09/20 02:19:17;;;;;;;1.80;1.00;;;;;;;24.86;43.92;96595.78;5016333;28;20014;-34
2022/09/20 02:21:48;;;;;;;2.67;1.00;;;;;;;24.84;43.80;96612.19;5015344;28;20032;-34
2022/09/20 02:24:29;;;;;;;2.72;1.15;;;;;;;24.81;43.98;96602.13;5016216;28;20034;-34
2022/09/20 02:27:16;;;;;;;2.40;1.08;;;;;;;24.81;43.88;96608.44;5016002;28;20478;-34
2022/09/20 02:30:11;;;;;;;2.63;1.17;;;;;;;24.85;43.62;96599.84;5015929;28;20112;-34
2022/09/20 02:33:05;;;;;;;1.90;1.08;;;;;;;24.81;43.80;96604.91;5015933;28;20026;-34
2022/09/20 02:35:58;;;;;;;2.67;1.38;;;;;;;24.80;43.84;96606.94;5015898;28;20018;-34
2022/09/20 02:38:40;;;;;;;2.95;1.08;;;;;;;24.79;43.97;96607.44;5015937;28;20038;-35
2022/09/20 02:41:40;;;;;;;2.05;1.10;;;;;;;24.83;43.74;96605.16;5016042;28;20022;-34
2022/09/20 02:44:25;;;;;;;1.55;1.10;;;;;;;24.82;43.82;96603.66;5015716;28;20458;-34
2022/09/20 02:47:05;;;;;;;1.30;0.73;;;;;;;24.83;43.86;96599.59;5015819;28;20034;-34
2022/09/20 02:49:45;;;;;;;3.50;1.30;;;;;;;24.74;43.82;96606.22;5015659;28;20100;-34
2022/09/20 02:52:49;;;;;;;2.58;1.00;;;;;;;24.79;43.77;96599.13;5015648;28;20022;-34
2022/09/20 02:55:45;;;;;;;1.73;0.80;;;;;;;24.78;43.77;96603.16;5015529;28;20022;-35
2022/09/20 02:58:32;;;;;;;3.33;1.08;;;;;;;24.72;43.89;96594.91;5022619;28;20471;-34
2022/09/20 03:01:22;;;;;;;1.77;1.05;;;;;;;24.80;43.75;96595.84;5020803;28;20033;-34
2022/09/20 03:04:32;;;;;;;1.95;0.93;;;;;;;24.76;44.06;96587.03;5011957;28;20108;-34
2022/09/20 03:07:21;;;;;;;1.98;0.98;;;;;;;24.84;43.49;96592.78;5013326;28;20037;-34
2022/09/20 03:10:01;;;;;;;2.35;1.40;;;;;;;24.79;43.84;96599.13;5013528;28;20465;-34
2022/09/20 03:12:56;;;;;;;2.38;0.90;;;;;;;24.80;43.77;96597.84;5013146;28;20136;-34
2022/09/20 03:15:44;;;;;;;2.55;1.20;;;;;;;24.72;43.89;96594.91;5013144;28;20030;-34
2022/09/20 03:18:14;;;;;;;2.83;1.10;;;;;;;24.72;43.97;96594.91;5013073;28;20097;-34
2022/09/20 03:20:46;;;;;;;3.78;1.45;;;;;;;24.72;44.06;96585.84;5013339;28;20040;-34
2022/09/20 03:23:48;;;;;;;1.65;1.35;;;;;;;24.74;44.00;96589.56;5013266;28;20029;-34
2022/09/20 03:26:42;;;;;;;1.35;0.80;;;;;;;24.77;43.76;96585.78;5013052;28;20048;-34
2022/09/20 03:29:22;;;;;;;1.80;0.90;;;;;;;24.79;43.77;96583.22;5013155;28;20022;-34
2022/09/20 03:32:06;;;;;;;1.67;1.20;;;;;;;24.79;43.65;96579.72;5012827;28;20041;-34
2022/09/20 03:34:57;;;;;;;1.60;1.20;;;;;;;24.77;43.79;96577.44;5012995;28;20065;-34
2022/09/20 03:37:49;;;;;;;2.70;1.20;;;;;;;24.77;43.74;96576.69;5013307;28;20042;-34
2022/09/20 03:40:15;;;;;;;2.40;0.98;;;;;;;24.75;43.93;96593.09;5014879;28;20159;-34
2022/09/20 03:42:50;;;;;;;1.63;1.10;;;;;;;24.70;43.99;96587.09;5013487;28;20116;-34
2022/09/20 03:45:34;;;;;;;2.58;1.30;;;;;;;24.71;43.88;96593.41;5014691;28;20050;-34
2022/09/20 03:48:29;;;;;;;1.83;1.15;;;;;;;24.74;43.66;96591.59;5014536;28;20021;-34
2022/09/20 03:51:11;;;;;;;2.03;1.00;;;;;;;24.71;43.73;96590.63;5014390;28;20561;-34
2022/09/20 03:53:52;;;;;;;1.85;1.00;;;;;;;24.74;43.74;96595.13;5014527;28;20026;-34
2022/09/20 03:56:47;;;;;;;2.65;1.33;;;;;;;24.73;43.94;96593.59;5014457;28;20025;-34
2022/09/20 03:59:36;;;;;;;3.70;1.13;;;;;;;24.68;43.79;96588.88;5014334;28;20021;-34
2022/09/20 04:02:29;;;;;;;1.33;0.80;;;;;;;24.65;44.00;96601.00;5014242;28;20549;-34
2022/09/20 04:04:57;;;;;;;;;;;;;;;24.66;44.01;96588.63;5014913;28;20065;-34
2022/09/20 04:07:52;;;;;;;3.08;1.15;;;;;;;24.67;44.03;96590.91;5014110;28;20004;-34
2022/09/20 04:10:43;;;;;;;1.52;1.40;;;;;;;24.70;43.83;96587.09;5014339;28;20036;-35
2022/09/20 04:13:34;;;;;;;2.92;1.17;;;;;;;24.65;43.99;96590.66;5014343;28;20041;-34
2022/09/20 04:16:16;;;;;;;1.70;1.00;;;;;;;24.65;44.04;96596.19;5014208;28;20026;-34
2022/09/20 04:18:55;;;;;;;2.80;1.08;;;;;;;24.61;43.94;96584.63;5014132;28;20022;-34
2022/09/20 04:21:34;;;;;;;2.80;1.10;;;;;;;24.63;44.04;96589.66;5014563;28;20025;-34
2022/09/20 04:24:09;;;;;;;2.47;1.20;;;;;;;24.69;43.87;96590.38;5013991;28;20099;-34
2022/09/20 04:26:41;;;;;;;2.95;1.23;;;;;;;24.61;43.93;96584.63;5014109;28;20403;-34
2022/09/20 04:29:41;;;;;;;2.03;1.40;;;;;;;24.62;43.94;96597.22;5014078;28;20017;-34
2022/09/20 04:32:41;;;;;;;1.52;1.05;;;;;;;24.53;44.18;96594.03;5013893;28;20026;-34
2022/09/20 04:38:21;;;;;;;2.05;1.20;;;;;;;24.61;44.03;96590.19;5013778;28;20102;-34
2022/09/20 04:40:55;;;;;;;3.13;1.50;;;;;;;24.61;43.77;96594.97;5014056;28;20057;-35
2022/09/20 04:43:38;;;;;;;2.30;1.05;;;;;;;24.56;44.03;96593.75;5013671;28;20430;-34
2022/09/20 04:46:34;;;;;;;2.55;1.15;;;;;;;24.57;44.17;96597.28;5013272;28;20474;-34
2022/09/20 04:49:06;;;;;;;3.25;1.20;;;;;;;24.60;43.72;96599.75;5013569;28;20040;-34
2022/09/20 04:51:45;;;;;;;2.30;0.90;;;;;;;24.57;44.03;96600.81;5013697;28;20026;-34
2022/09/20 04:54:48;;;;;;;1.98;1.00;;;;;;;24.56;43.99;96610.41;5013620;28;20026;-34
2022/09/20 04:57:53;;;;;;;2.00;1.10;;;;;;;24.59;43.96;96606.59;5013402;28;20030;-34
2022/09/20 05:00:21;;;;;;;1.23;0.80;;;;;;;24.55;43.97;96608.13;5013692;28;20023;-35
2022/09/20 05:03:13;;;;;;;2.25;1.27;;;;;;;24.55;43.97;96603.34;5013440;28;20049;-34
2022/09/20 05:05:41;;;;;;;2.15;1.13;;;;;;;24.53;44.02;96605.13;5013458;28;20057;-34
2022/09/20 05:08:39;;;;;;;2.17;1.08;;;;;;;24.53;43.96;96610.66;5013674;28;20041;-34
2022/09/20 05:11:08;;;;;;;1.90;1.13;;;;;;;24.61;43.63;96615.13;5013638;28;20029;-34
2022/09/20 05:13:56;;;;;;;2.67;0.90;;;;;;;24.62;43.89;96613.09;5029992;28;20037;-34
2022/09/20 05:16:37;;;;;;;3.30;1.30;;;;;;;24.48;44.02;96614.97;5031319;28;20025;-34
2022/09/20 05:19:21;;;;;;;3.42;1.10;;;;;;;24.58;43.82;96618.19;5030104;28;20465;-34
2022/09/20 05:22:07;;;;;;;2.03;1.10;;;;;;;24.54;43.84;96618.47;5031290;28;20029;-34
2022/09/20 05:24:45;;;;;;;2.53;1.23;;;;;;;24.55;43.85;96614.44;5020800;28;20076;-34
2022/09/20 05:27:39;;;;;;;3.30;1.35;;;;;;;24.59;43.91;96622.47;5009789;28;20476;-34
2022/09/20 05:30:11;;;;;;;2.28;1.00;;;;;;;24.52;43.86;96623.78;5011379;28;20032;-34
2022/09/20 05:33:04;;;;;;;2.25;1.20;;;;;;;24.60;43.71;96626.75;5009901;28;20034;-35
2022/09/20 05:35:39;;;;;;;2.00;1.27;;;;;;;24.60;43.76;96618.44;5011204;28;20062;-35
2022/09/20 05:38:31;;;;;;;2.47;1.38;;;;;;;24.58;43.73;96620.97;5011435;28;20038;-34
2022/09/20 05:41:17;;;;;;;1.52;0.90;;;;;;;24.58;43.74;96626.53;5019998;28;20070;-34
2022/09/20 05:44:20;;;;;;;2.88;1.30;;;;;;;24.56;43.60;96629.06;5011494;28;20034;-34
2022/09/20 05:47:36;;;;;;;2.22;1.20;;;;;;;24.54;43.91;96629.56;5009819;28;20057;-34
2022/09/20 05:50:55;;;;;;;4.32;1.33;;;;;;;24.60;43.56;96635.09;5010411;28;20049;-34
2022/09/20 05:53:56;;;;;;;3.05;1.58;;;;;;;24.57;43.59;96622.25;5028577;28;20044;-34
2022/09/20 05:56:21;;;;;;;2.10;1.40;;;;;;;24.56;43.73;96621.50;5028629;28;20072;-34
2022/09/20 05:58:53;;;;;;;3.83;1.60;;;;;;;24.59;43.60;96631.56;5032001;28;20061;-34
2022/09/20 06:01:54;;;;;;;2.08;1.25;;;;;;;24.60;43.54;96627.50;5043837;28;20687;-34
2022/09/20 06:04:33;;;;;;;2.00;1.20;;;;;;;24.59;43.75;96634.31;5011986;28;20055;-35
2022/09/20 06:07:29;;;;;;;2.10;1.50;;;;;;;24.60;43.65;96619.16;5051887;28;20043;-34
2022/09/20 06:10:30;;;;;;;2.40;1.48;;;;;;;24.58;43.77;96623.75;5051698;28;20032;-35
2022/09/20 06:13:23;;;;;;;2.08;1.52;;;;;;;24.56;43.62;96624.25;5051352;28;20029;-34
2022/09/20 06:15:57;;;;;;;2.75;1.27;;;;;;;24.62;43.57;96629.75;5034891;28;20102;-34
2022/09/20 06:18:25;;;;;;;2.33;1.45;;;;;;;24.52;43.75;96626.53;5051750;28;20477;-34
2022/09/20 06:21:40;;;;;;;2.40;1.70;;;;;;;24.59;43.67;96631.56;5051558;28;20047;-34
2022/09/20 06:24:20;;;;;;;2.70;1.38;;;;;;;24.61;43.75;96628.25;5005993;28;20032;-35
2022/09/20 06:26:50;;;;;;;2.80;1.75;;;;;;;24.59;43.79;96626.00;5035419;28;20121;-34
2022/09/20 06:29:21;;;;;;;3.55;1.73;;;;;;;24.56;43.93;96631.81;5014265;28;20041;-34
2022/09/20 06:31:47;;;;;;;1.45;1.30;;;;;;;24.58;43.87;96630.03;5014357;28;20072;-35
2022/09/20 06:34:14;;;;;;;3.10;1.45;;;;;;;24.59;43.98;96639.13;5014154;28;20028;-34
2022/09/20 06:42:37;;;;;;;4.03;1.90;;;;;;;24.62;43.72;96640.84;5013951;28;20413;-34
2022/09/20 06:45:03;;;;;;;2.63;1.60;;;;;;;24.57;43.90;96641.66;5013885;28;20025;-34
2022/09/20 06:47:28;;;;;;;3.58;1.90;;;;;;;24.61;43.91;96642.84;5013609;28;20117;-34
2022/09/20 06:49:54;;;;;;;3.20;2.00;;;;;;;24.62;43.93;96641.59;5013605;28;20079;-34
2022/09/20 06:52:21;;;;;;;3.03;1.75;;;;;;;24.59;43.97;96648.19;5013729;28;20093;-34
2022/09/20 06:54:52;;;;;;;2.75;1.73;;;;;;;24.55;43.97;96647.72;5013713;28;20040;-35
2022/09/20 06:57:33;;;;;;;2.55;1.65;;;;;;;24.60;43.96;96649.66;5013733;28;20028;-34
2022/09/20 06:59:59;;;;;;;2.80;1.80;;;;;;;24.63;43.97;96656.22;5014443;28;20022;-34
2022/09/20 07:02:25;;;;;;;2.70;1.70;;;;;;;24.62;44.09;96655.47;5033389;28;20040;-34
2022/09/20 07:04:56;;;;;;;2.83;1.23;;;;;;;24.64;43.96;96652.94;5033358;28;20029;-34
2022/09/20 07:07:22;;;;;;;2.70;1.38;;;;;;;23.85;46.17;96660.16;5032525;28;20037;-30
2022/09/20 07:09:48;;;;;;;6.43;1.40;;;;;;;22.93;48.42;96667.56;5032997;28;20032;-30
2022/09/20 07:12:15;;;;;;;2.35;1.10;;;;;;;22.92;47.99;96671.59;5032595;28;20095;-30
2022/09/20 07:14:43;;;;;;;4.18;1.45;;;;;;;22.89;48.01;96666.31;5033317;28;20109;-34
2022/09/20 07:17:08;;;;;;;3.55;1.15;;;;;;;23.60;46.28;96673.06;5033307;28;20029;-34
2022/09/20 07:19:35;;;;;;;3.50;1.77;;;;;;;23.88;45.43;96667.41;5032938;28;20481;-34
2022/09/20 07:22:01;;;;;;;3.45;1.30;;;;;;;24.11;44.91;96673.59;5032956;28;20436;-34
2022/09/20 07:24:31;;;;;;;3.53;1.30;;;;;;;24.28;44.44;96684.66;5029881;28;20025;-34
2022/09/20 07:26:59;;;;;;;2.05;1.23;;;;;;;24.44;44.08;96683.06;5014852;28;20442;-35
2022/09/20 07:29:26;;;;;;;3.15;1.45;;;;;;;24.39;44.33;96692.91;5014195;28;20044;-34
2022/09/20 07:31:51;;;;;;;4.03;1.48;;;;;;;24.38;44.32;96688.63;5014392;28;20164;-34
2022/09/20 07:34:19;;;;;;;3.65;1.30;;;;;;;24.47;43.86;96682.81;5014556;28;20061;-35
2022/09/20 07:36:45;;;;;;;3.28;1.30;;;;;;;24.52;43.86;96682.00;5014858;28;20053;-34
2022/09/20 07:39:11;;;;;;;2.22;1.30;;;;;;;24.44;44.09;96683.81;5015001;28;20044;-34
2022/09/20 07:41:36;;;;;;;2.65;1.20;;;;;;;24.44;44.01;96685.84;5015989;28;20022;-34
2022/09/20 07:44:20;;;;;;;3.90;1.38;;;;;;;24.42;44.09;96680.81;5015166;28;20379;-34
2022/09/20 07:46:53;;;;;;;2.53;1.48;;;;;;;24.45;44.16;96687.34;5014594;28;20026;-34
2022/09/20 07:49:19;;;;;;;;;;;;;;;24.51;43.81;96691.59;5015516;28;20462;-34
2022/09/20 07:51:44;;;;;;;5.38;1.23;;;;;;;24.42;44.00;96693.91;5014776;28;19913;-34
2022/09/20 07:54:10;;;;;;;2.95;1.10;;;;;;;24.37;44.14;96706.53;5014568;28;20360;-35
2022/09/20 07:56:36;;;;;;;2.58;1.00;;;;;;;24.39;44.03;96694.94;5014416;28;20018;-34
2022/09/20 07:59:02;;;;;;;1.90;1.15;;;;;;;24.39;44.01;96695.69;5016299;28;20029;-34
2022/09/20 08:01:28;;;;;;;2.63;1.23;;;;;;;24.43;43.92;96704.50;5032394;28;20033;-34
2022/09/20 08:03:54;;;;;;;3.88;1.50;;;;;;;24.39;44.16;96708.78;5023856;28;20105;-34
2022/09/20 08:06:20;;;;;;;1.65;1.10;;;;;;;24.40;44.15;96708.28;5017410;28;20489;-34
2022/09/20 08:08:46;;;;;;;2.38;1.50;;;;;;;24.48;43.74;96709.22;5014225;28;20014;-34
2022/09/20 08:11:19;;;;;;;1.50;0.90;;;;;;;24.42;43.83;96711.28;5014076;28;20433;-34
2022/09/20 08:13:47;;;;;;;2.85;1.20;;;;;;;24.44;43.76;96717.09;5013019;28;20018;-34
2022/09/20 08:16:13;;;;;;;2.53;1.15;;;;;;;24.37;44.08;96714.84;5014381;28;20029;-34
2022/09/20 08:18:45;;;;;;;1.52;1.20;;;;;;;24.48;43.68;96711.28;5014378;28;20033;-34
2022/09/20 08:21:11;;;;;;;2.60;1.30;;;;;;;24.37;44.04;96714.09;5013998;28;20022;-34
2022/09/20 08:23:37;;;;;;;2.08;1.13;;;;;;;24.52;43.72;96720.81;5013995;28;20367;-34
2022/09/20 08:26:04;;;;;;;2.17;1.25;;;;;;;24.54;43.56;96723.06;5014241;28;20422;-34
2022/09/20 08:28:31;;;;;;;2.30;1.15;;;;;;;24.50;43.55;96723.34;5014157;28;20076;-34
2022/09/20 08:31:02;;;;;;;1.45;1.05;;;;;;;24.55;43.38;96725.34;5013761;28;20479;-34
2022/09/20 08:33:27;;;;;;;2.67;1.10;;;;;;;24.47;43.71;96718.84;5014005;28;20485;-34
2022/09/20 08:35:53;;;;;;;1.75;1.25;;;;;;;24.46;43.64;96722.13;5013529;28;20120;-34
2022/09/20 08:38:19;;;;;;;1.75;1.08;;;;;;;24.30;44.22;96720.94;5013665;28;20053;-34
2022/09/20 08:40:48;;;;;;;1.70;1.20;;;;;;;24.30;44.07;96723.69;5013603;28;20494;-34
2022/09/20 08:43:14;;;;;;;1.80;1.08;;;;;;;24.42;43.74;96727.94;5014048;28;20029;-34
2022/09/20 08:45:40;;;;;;;2.38;1.33;;;;;;;24.33;44.05;96719.91;5014086;28;20102;-34
2022/09/20 08:48:12;;;;;;;2.15;1.00;;;;;;;24.32;44.12;96733.03;5013973;28;20450;-34
2022/09/20 08:50:37;;;;;;;2.50;1.13;;;;;;;24.22;44.30;96725.47;5013574;28;20033;-34
2022/09/20 08:53:04;;;;;;;1.98;1.13;;;;;;;24.42;43.88;96733.47;5014005;28;20029;-34
2022/09/20 08:55:31;;;;;;;1.98;1.10;;;;;;;24.40;43.79;96729.69;5013773;28;20112;-34
2022/09/20 08:57:58;;;;;;;2.05;0.95;;;;;;;24.40;43.88;96724.91;5013786;28;20069;-35
2022/09/20 09:00:30;;;;;;;1.83;1.00;;;;;;;24.18;44.54;96730.53;5014024;28;20022;-34
2022/09/20 09:02:59;;;;;;;2.53;1.38;;;;;;;24.25;44.32;96733.53;5013634;28;20029;-34
2022/09/20 09:05:32;;;;;;;3.40;1.40;;;;;;;24.26;44.36;96739.84;5013656;28;20034;-34
2022/09/20 09:08:00;;;;;;;3.40;1.40;;;;;;;24.34;44.05;96735.28;5013522;28;20029;-34
2022/09/20 09:10:38;;;;;;;1.50;1.08;;;;;;;24.39;44.03;96731.72;5013567;28;20363;-34
2022/09/20 09:13:05;;;;;;;2.63;1.02;;;;;;;24.26;44.27;96729.50;5012303;28;20399;-34
2022/09/20 09:15:37;;;;;;;3.42;1.25;;;;;;;23.99;45.18;96735.88;5013576;28;20033;-34
2022/09/20 09:18:08;;;;;;;1.65;0.98;;;;;;;23.99;45.37;96731.09;5014103;28;20112;-34
2022/09/20 09:20:42;;;;;;;2.63;1.17;;;;;;;24.29;44.24;96722.19;5013638;28;20528;-34
2022/09/20 09:23:08;;;;;;;5.05;1.65;;;;;;;23.94;45.03;96729.09;5013534;28;20113;-34
2022/09/20 09:25:38;;;;;;;5.32;1.20;;;;;;;23.73;45.88;96721.63;5010370;28;20156;-35
2022/09/20 09:28:13;;;;;;;5.38;1.30;;;;;;;24.03;44.88;96725.28;5012912;28;20022;-34
2022/09/20 09:30:42;;;;;;;2.85;0.98;;;;;;;24.39;44.12;96723.41;5013811;28;20560;-34
2022/09/20 09:33:29;;;;;;;3.15;1.20;;;;;;;24.40;44.17;96724.91;5017277;28;20070;-34
2022/09/20 09:36:16;;;;;;;1.55;1.10;;;;;;;24.43;43.98;96729.44;5017347;28;20100;-34
2022/09/20 09:38:44;;;;;;;2.08;1.10;;;;;;;24.41;44.04;96723.66;5016911;28;20033;-34
2022/09/20 09:41:34;;;;;;;3.25;1.05;;;;;;;24.46;44.03;96724.91;5017024;28;20438;-35
2022/09/20 09:44:18;;;;;;;3.15;1.60;;;;;;;24.10;45.21;96729.56;5017156;28;20033;-34
2022/09/20 09:46:43;;;;;;;3.67;1.40;;;;;;;24.08;45.19;96726.53;5016892;28;20068;-34
2022/09/20 09:49:17;;;;;;;2.50;0.80;;;;;;;24.15;44.86;96714.91;5016813;28;20022;-34
2022/09/20 09:52:00;;;;;;;3.90;1.15;;;;;;;23.87;45.41;96715.00;5016745;28;20029;-34
2022/09/20 09:54:30;;;;;;;5.32;1.30;;;;;;;23.88;45.51;96713.75;5016887;28;20030;-34
2022/09/20 09:57:39;;;;;;;3.20;1.42;;;;;;;23.82;46.14;96711.00;5016797;28;20033;-34
2022/09/20 10:00:18;;;;;;;4.75;1.30;;;;;;;23.96;45.53;96729.34;5010736;28;20393;-35
2022/09/20 10:03:05;;;;;;;2.53;1.20;;;;;;;24.16;44.85;96717.19;5016509;28;20482;-34
2022/09/20 10:06:09;;;;;;;4.10;1.10;;;;;;;24.40;44.53;96716.59;5016938;28;20478;-34
2022/09/20 10:08:56;;;;;;;2.63;1.15;;;;;;;24.07;45.50;96713.94;5016466;28;20034;-34
2022/09/20 10:11:35;;;;;;;2.40;1.02;;;;;;;24.00;45.31;96715.22;5016441;28;20033;-34
2022/09/20 10:14:18;;;;;;;4.05;1.15;;;;;;;23.87;45.81;96713.00;5016460;28;20364;-34
2022/09/20 10:16:59;;;;;;;4.18;1.02;;;;;;;23.90;45.22;96711.97;5016364;28;20093;-34
2022/09/20 10:19:46;;;;;;;3.58;1.48;;;;;;;24.03;44.97;96719.00;5016176;28;20058;-34
2022/09/20 10:22:26;;;;;;;2.40;1.77;;;;;;;24.24;44.95;96709.84;5016277;28;20041;-34
2022/09/20 10:25:19;;;;;;;2.90;1.17;;;;;;;24.39;44.47;96712.31;5016216;28;20022;-34
2022/09/20 10:28:02;;;;;;;1.60;1.00;;;;;;;24.60;44.01;96710.69;5016050;28;20026;-34
2022/09/20 10:31:00;;;;;;;3.20;1.15;;;;;;;24.67;43.73;96712.16;5016305;28;20026;-35
2022/09/20 10:33:51;;;;;;;2.15;1.00;;;;;;;24.67;43.69;96704.59;5015300;28;20125;-35
2022/09/20 10:36:34;;;;;;;2.45;1.05;;;;;;;24.55;43.97;96716.28;5016007;28;20125;-35
2022/09/20 10:39:10;;;;;;;3.35;1.38;;;;;;;24.44;43.54;96708.00;5015948;28;20029;-34
2022/09/20 10:45:09;;;;;;;1.75;1.20;;;;;;;24.66;43.58;96707.88;5015777;28;20040;-34
2022/09/20 10:47:51;;;;;;;3.22;1.00;;;;;;;24.38;43.69;96707.28;5014980;28;20046;-34
2022/09/20 10:50:43;;;;;;;2.92;1.23;;;;;;;24.65;43.40;96707.13;5015870;28;20026;-34
2022/09/20 10:53:28;;;;;;;4.60;1.50;;;;;;;24.70;43.25;96703.56;5015762;28;20068;-34
2022/09/20 10:56:13;;;;;;;2.47;1.13;;;;;;;24.75;43.49;96709.59;5015766;28;20045;-34
2022/09/20 10:58:48;;;;;;;1.75;1.27;;;;;;;24.76;43.17;96711.09;5015732;28;20127;-34
2022/09/20 11:01:31;;;;;;;2.72;1.10;;;;;;;24.81;43.13;96702.00;5015421;28;20498;-34
2022/09/20 11:04:15;;;;;;;1.75;1.10;;;;;;;24.78;43.07;96709.31;5015646;28;20029;-34
2022/09/20 11:06:47;;;;;;;2.25;1.10;;;;;;;24.77;42.91;96707.81;5015562;28;20022;-35
2022/09/20 11:09:18;;;;;;;1.85;1.02;;;;;;;24.80;42.82;96711.59;5015597;28;20034;-34
2022/09/20 11:12:01;;;;;;;2.20;1.02;;;;;;;24.82;42.98;96712.56;5015423;28;20038;-34
2022/09/20 11:14:56;;;;;;;2.07;1.07;;;;;;;24.81;42.84;96704.75;5015212;28;20112;-34
2022/09/20 11:17:34;;;;;;;1.83;1.00;;;;;;;24.80;42.88;96709.56;5015408;28;20278;-34
2022/09/20 11:20:14;;;;;;;1.40;0.88;;;;;;;24.74;42.91;96706.06;5015533;28;20092;-35
2022/09/20 11:22:47;;;;;;;4.38;1.10;;;;;;;24.73;43.03;96706.59;5015389;28;20060;-35
2022/09/20 11:25:15;;;;;;;1.83;1.20;;;;;;;24.82;42.96;96695.19;5014222;28;20030;-34
2022/09/20 11:27:51;;;;;;;2.60;1.27;;;;;;;24.85;42.61;96691.38;5014928;28;20049;-34
2022/09/20 11:30:20;;;;;;;2.53;1.10;;;;;;;24.83;42.68;96696.69;5015350;28;20536;-34
2022/09/20 11:32:52;;;;;;;2.90;1.20;;;;;;;24.80;42.68;96708.81;5015044;28;20037;-34
2022/09/20 11:35:20;;;;;;;2.10;1.00;;;;;;;24.75;41.00;96704.78;5014939;28;20022;-34
2022/09/20 11:37:52;;;;;;;1.52;0.80;;;;;;;24.79;42.74;96702.50;5014625;28;20061;-34
2022/09/20 11:40:31;;;;;;;1.77;0.98;;;;;;;24.87;42.49;96697.16;5014902;28;20025;-34
2022/09/20 11:43:00;;;;;;;3.45;1.10;;;;;;;24.86;42.19;96692.84;5014706;28;20032;-34
2022/09/20 11:45:28;;;;;;;2.05;1.20;;;;;;;24.84;42.34;96685.09;5014794;28;20026;-34
2022/09/20 11:48:05;;;;;;;1.95;1.10;;;;;;;24.85;42.11;96699.72;5014807;28;20025;-34
2022/09/20 11:50:39;;;;;;;1.42;1.00;;;;;;;24.93;42.04;96693.09;5013462;28;20466;-34
2022/09/20 11:53:32;;;;;;;3.03;1.10;;;;;;;24.86;41.71;96688.06;5014647;28;20030;-34
2022/09/20 11:56:17;;;;;;;1.60;1.00;;;;;;;24.74;42.00;96688.66;5013684;28;20030;-34
2022/09/20 11:58:48;;;;;;;1.42;0.95;;;;;;;24.85;41.78;96683.06;5014569;28;20485;-34
2022/09/20 12:01:36;;;;;;;2.72;1.23;;;;;;;24.92;41.50;96691.56;5014316;28;20096;-34
2022/09/20 12:04:10;;;;;;;3.17;1.10;;;;;;;24.90;41.86;96683.00;5014082;28;20409;-35
2022/09/20 12:06:39;;;;;;;1.63;0.90;;;;;;;24.84;41.70;96681.56;5019392;28;20022;-34
2022/09/20 12:09:27;;;;;;;2.58;1.15;;;;;;;24.96;41.27;96675.44;5022491;28;20072;-34
2022/09/20 12:11:53;;;;;;;1.63;1.02;;;;;;;24.89;41.48;96672.41;5027914;28;20123;-34
2022/09/20 12:14:24;;;;;;;1.95;1.10;;;;;;;24.89;41.72;96675.94;5024883;28;20052;-34
2022/09/20 12:16:50;;;;;;;1.23;1.05;;;;;;;24.92;41.43;96672.16;5034161;28;20053;-34
2022/09/20 12:19:33;;;;;;;2.58;1.25;;;;;;;24.92;41.60;96674.16;5026993;28;20505;-34
2022/09/20 12:21:58;;;;;;;1.70;0.93;;;;;;;24.90;41.90;96663.59;5032332;28;20034;-34
2022/09/20 12:24:34;;;;;;;1.38;1.00;;;;;;;24.89;41.63;96661.31;5024056;28;20367;-34
2022/09/20 12:27:22;;;;;;;1.27;0.93;;;;;;;24.89;41.54;96659.31;5012523;28;20026;-35
2022/09/20 12:30:02;;;;;;;1.98;1.00;;;;;;;24.93;41.38;96659.06;5012016;28;20490;-34
2022/09/20 12:32:41;;;;;;;2.08;1.00;;;;;;;24.88;40.80;96659.81;5012167;28;20114;-34
2022/09/20 12:35:34;;;;;;;2.13;1.10;;;;;;;24.93;40.74;96659.81;5012108;28;20037;-34
2022/09/20 12:38:44;;;;;;;2.35;1.10;;;;;;;24.93;41.03;96659.81;5031645;28;20065;-34
2022/09/20 12:41:16;;;;;;;2.15;1.10;;;;;;;24.97;41.05;96654.00;5029644;28;20033;-34
2022/09/20 12:43:52;;;;;;;3.22;1.00;;;;;;;25.00;40.88;96647.38;5029648;28;20065;-34